Time;durP1;ratioP1;P1;durP2;ratioP2;P2;SDS_P1;SDS_P2;PMS_P1;PMS_P2;Temp;Humidity;BMP_temperature;BMP_pressure;BME280_temperature;BME280_humidity;BME280_pressure;Samples;Min_cycle;Max_cycle;Signal;HPM_P1;HPM_P2
2023/05/03 00:00:32;;;;;;;1.52;1.13;;;;;;;13.50;94.56;101499.63;4869763;29;20297;-79
2023/05/03 00:02:59;;;;;;;2.17;1.10;;;;;;;12.92;95.18;101410.31;4869270;29;20078;-81
2023/05/03 00:05:34;;;;;;;1.58;0.90;;;;;;;13.57;95.47;101522.09;4867646;29;20054;-80
2023/05/03 00:08:04;;;;;;;1.20;1.00;;;;;;;13.49;95.79;101508.59;4859151;29;20090;-83
2023/05/03 00:10:36;;;;;;;2.75;1.20;;;;;;;13.44;96.08;101507.16;4869772;29;20047;-82
2023/05/03 00:13:11;;;;;;;1.38;1.20;;;;;;;13.58;96.09;101519.31;4871596;29;20063;-82
2023/05/03 00:15:42;;;;;;;1.02;1.00;;;;;;;13.52;95.78;101518.97;4864252;29;20059;-82
2023/05/03 00:18:13;;;;;;;1.65;1.30;;;;;;;13.34;95.53;101473.44;4889141;29;20530;-82
2023/05/03 00:20:42;;;;;;;2.92;1.20;;;;;;;13.64;95.31;101509.91;4874539;29;20230;-78
2023/05/03 00:23:10;;;;;;;3.67;1.48;;;;;;;13.61;94.51;101516.34;4864104;29;20327;-80
2023/05/03 00:25:38;;;;;;;1.33;1.10;;;;;;;13.48;95.61;101506.91;4873794;29;20250;-82
2023/05/03 00:28:06;;;;;;;2.35;1.40;;;;;;;13.46;95.96;101513.22;4848100;29;20056;-82
2023/05/03 00:30:35;;;;;;;3.25;1.33;;;;;;;13.45;96.19;101508.03;4852746;29;20055;-83
2023/05/03 00:33:01;;;;;;;1.42;1.20;;;;;;;13.46;96.03;101515.03;4860246;29;20134;-82
2023/05/03 00:35:33;;;;;;;2.00;1.25;;;;;;;13.58;95.52;101526.47;4833860;29;20140;-82
2023/05/03 00:38:05;;;;;;;1.60;1.50;;;;;;;13.31;95.92;101479.88;4852529;29;20307;-82
2023/05/03 00:40:33;;;;;;;1.58;1.20;;;;;;;13.52;96.48;101518.97;4856618;29;20626;-80
2023/05/03 00:43:01;;;;;;;2.17;1.23;;;;;;;13.50;96.41;101526.31;4854600;29;20062;-81
2023/05/03 00:45:33;;;;;;;4.15;1.65;;;;;;;13.26;97.38;101492.72;4872404;29;20103;-83
2023/05/03 00:48:00;;;;;;;1.55;1.10;;;;;;;13.32;97.03;101508.22;4868841;29;20071;-80
2023/05/03 00:50:28;;;;;;;1.30;1.20;;;;;;;13.46;97.07;101534.53;4842073;29;20071;-82
2023/05/03 00:52:55;;;;;;;1.88;1.30;;;;;;;13.25;97.26;101513.22;4857002;29;20048;-80
2023/05/03 00:55:30;;;;;;;1.70;1.50;;;;;;;13.44;96.80;101527.66;4846094;29;20056;-81
2023/05/03 00:57:57;;;;;;;2.00;1.60;;;;;;;13.28;96.46;101496.16;4865290;29;20047;-85
2023/05/03 01:00:24;;;;;;;1.70;1.50;;;;;;;13.50;96.73;101543.16;4857409;29;20411;-82
2023/05/03 01:02:55;;;;;;;2.83;1.17;;;;;;;13.15;97.31;101485.63;4866082;29;20087;-78
2023/05/03 01:05:22;;;;;;;2.70;1.65;;;;;;;13.46;97.39;101536.38;4864615;29;20503;-81
2023/05/03 01:08:10;;;;;;;1.60;1.25;;;;;;;13.33;97.37;101517.91;4861763;29;20237;-82
2023/05/03 01:10:47;;;;;;;1.83;1.40;;;;;;;13.38;97.84;101534.38;4852757;29;20052;-78
2023/05/03 01:13:23;;;;;;;1.92;1.58;;;;;;;13.36;97.62;101520.31;4866447;29;20048;-79
2023/05/03 01:16:25;;;;;;;1.67;1.58;;;;;;;13.26;97.36;101509.56;4853852;29;20052;-80
2023/05/03 01:19:00;;;;;;;2.10;1.75;;;;;;;13.09;97.48;101469.34;4872480;29;20270;-82
2023/05/03 01:21:32;;;;;;;2.55;1.80;;;;;;;13.43;97.34;101521.47;4869341;29;20190;-82
2023/05/03 01:24:27;;;;;;;1.67;1.40;;;;;;;13.49;96.43;101529.94;4863040;29;20060;-78
2023/05/03 01:26:53;;;;;;;2.08;1.60;;;;;;;13.52;96.31;101527.84;4857537;29;20490;-79
2023/05/03 01:29:22;;;;;;;1.77;1.67;;;;;;;13.16;96.86;101481.16;4845147;29;20048;-82
2023/05/03 01:32:00;;;;;;;2.05;1.50;;;;;;;13.44;96.86;101517.81;4849707;29;20047;-82
2023/05/03 01:34:40;;;;;;;2.47;1.70;;;;;;;13.59;96.04;101520.13;4864057;29;20075;-79
2023/05/03 01:37:12;;;;;;;2.15;1.75;;;;;;;13.31;95.76;101495.88;4859727;29;20517;-80
2023/05/03 01:39:42;;;;;;;1.70;1.60;;;;;;;13.10;95.62;101455.88;4840761;29;20048;-78
2023/05/03 01:42:12;;;;;;;4.38;1.85;;;;;;;13.33;96.61;101512.59;4873231;29;20078;-80
2023/05/03 01:44:44;;;;;;;1.60;1.50;;;;;;;13.38;97.30;101522.88;4858668;29;20254;-83
2023/05/03 01:47:13;;;;;;;;;;;;;;;13.38;97.50;101526.38;4875680;29;20491;-80
2023/05/03 01:49:40;;;;;;;1.63;1.48;;;;;;;13.27;96.57;101494.44;4874818;29;20341;-80
2023/05/03 01:52:07;;;;;;;1.70;1.40;;;;;;;13.45;96.98;101519.53;4844081;29;20056;-83
2023/05/03 01:54:35;;;;;;;2.35;1.42;;;;;;;13.38;96.90;101523.69;4856657;29;20303;-81
2023/05/03 01:57:06;;;;;;;2.10;1.90;;;;;;;13.35;96.40;101507.97;4847129;29;20056;-80
2023/05/03 01:59:44;;;;;;;2.53;2.33;;;;;;;13.31;96.84;101506.53;4851874;29;20056;-80
2023/05/03 02:02:11;;;;;;;2.83;1.45;;;;;;;13.34;97.39;101521.44;4846168;29;20076;-83
2023/05/03 02:04:39;;;;;;;2.28;1.98;;;;;;;13.39;97.47;101530.72;4870903;29;20067;-82
2023/05/03 02:07:06;;;;;;;2.10;1.90;;;;;;;13.18;97.09;101500.53;4890202;29;20071;-80
2023/05/03 02:09:33;;;;;;;1.50;1.40;;;;;;;13.48;96.38;101522.91;4893546;29;20143;-81
2023/05/03 02:11:59;;;;;;;1.85;1.50;;;;;;;13.32;96.49;101510.88;4866563;29;20048;-80
2023/05/03 02:14:26;;;;;;;2.47;1.88;;;;;;;13.21;97.46;101497.63;4869419;29;20059;-81
2023/05/03 02:16:54;;;;;;;2.78;2.15;;;;;;;13.37;96.63;101530.00;4848498;29;20419;-82
2023/05/03 02:19:26;;;;;;;2.33;2.13;;;;;;;13.24;95.81;101484.00;4838939;29;20144;-83
2023/05/03 02:21:52;;;;;;;2.30;2.10;;;;;;;13.14;95.94;101488.44;4859786;29;20399;-79
2023/05/03 02:24:19;;;;;;;1.73;1.60;;;;;;;13.28;96.62;101511.28;4846851;29;20767;-81
2023/05/03 02:26:46;;;;;;;2.47;2.13;;;;;;;13.19;96.56;101496.91;4866667;29;20062;-82
2023/05/03 02:29:14;;;;;;;1.80;1.67;;;;;;;13.22;96.60;101500.13;4887297;29;20052;-80
2023/05/03 02:31:41;;;;;;;2.17;1.98;;;;;;;13.35;96.59;101520.44;4876284;29;20360;-81
2023/05/03 02:34:08;;;;;;;2.33;2.05;;;;;;;13.38;96.28;101526.38;4866978;29;20369;-81
2023/05/03 02:36:35;;;;;;;3.60;1.98;;;;;;;12.93;96.03;101449.31;4882263;29;20155;-81
2023/05/03 02:39:04;;;;;;;2.42;2.17;;;;;;;13.21;97.22;101510.94;4876766;29;20675;-82
2023/05/03 02:41:31;;;;;;;1.95;1.80;;;;;;;13.21;97.08;101501.13;4879327;29;20241;-80
2023/05/03 02:43:58;;;;;;;2.30;1.92;;;;;;;13.34;97.31;101527.59;4863554;29;20142;-81
2023/05/03 02:46:26;;;;;;;2.10;1.90;;;;;;;13.49;96.21;101532.59;4886759;29;20067;-84
2023/05/03 02:48:52;;;;;;;2.33;2.03;;;;;;;13.42;95.93;101513.59;4887717;29;20044;-83
2023/05/03 02:51:19;;;;;;;3.55;2.20;;;;;;;13.36;96.96;101530.97;4862676;29;20055;-82
2023/05/03 02:53:51;;;;;;;2.00;1.85;;;;;;;13.37;96.94;101527.31;4864736;29;20056;-82
2023/05/03 02:56:27;;;;;;;3.70;2.28;;;;;;;13.32;97.17;101529.56;4868136;29;20067;-83
2023/05/03 02:58:54;;;;;;;3.72;2.13;;;;;;;13.24;97.62;101522.19;4875536;29;20051;-79
2023/05/03 03:01:21;;;;;;;1.92;1.60;;;;;;;13.18;97.50;101517.38;4878959;29;20056;-80
2023/05/03 03:03:48;;;;;;;3.85;2.40;;;;;;;13.02;97.62;101485.00;4865576;29;20049;-80
2023/05/03 03:06:15;;;;;;;2.70;2.35;;;;;;;13.33;97.24;101536.59;4876785;29;20391;-82
2023/05/03 03:08:42;;;;;;;2.25;2.05;;;;;;;12.93;97.87;101475.97;4859486;29;20401;-78
2023/05/03 03:11:09;;;;;;;4.55;2.60;;;;;;;13.12;98.11;101509.06;4876122;29;20056;-80
2023/05/03 03:13:42;;;;;;;3.80;2.55;;;;;;;13.24;98.62;101546.19;4879698;29;20515;-83
2023/05/03 03:16:12;;;;;;;2.38;1.90;;;;;;;13.31;98.07;101543.88;4867289;29;20361;-83
2023/05/03 03:18:39;;;;;;;2.63;2.15;;;;;;;13.15;98.24;101522.97;4864854;29;20059;-80
2023/05/03 03:21:06;;;;;;;2.50;2.28;;;;;;;13.10;98.35;101524.34;4882225;29;20087;-80
2023/05/03 03:23:32;;;;;;;2.13;1.92;;;;;;;13.37;97.66;101554.00;4865248;29;20048;-78
2023/05/03 03:26:05;;;;;;;2.00;1.80;;;;;;;13.29;97.67;101553.81;4855176;29;20060;-79
2023/05/03 03:28:35;;;;;;;2.50;2.05;;;;;;;13.10;98.05;101511.84;4863875;29;20354;-82
2023/05/03 03:31:02;;;;;;;3.42;2.20;;;;;;;12.74;97.21;101462.50;4875165;29;20072;-79
2023/05/03 03:33:29;;;;;;;2.70;2.17;;;;;;;13.46;96.55;101558.56;4875389;29;20048;-80
2023/05/03 03:35:56;;;;;;;3.92;1.92;;;;;;;13.31;96.88;101565.22;4851147;29;20423;-81
2023/05/03 03:38:23;;;;;;;2.58;1.73;;;;;;;13.33;97.19;101563.25;4842298;29;20049;-81
2023/05/03 03:40:56;;;;;;;2.50;2.10;;;;;;;13.19;96.90;101547.56;4847822;29;20367;-81
2023/05/03 03:43:23;;;;;;;2.70;2.03;;;;;;;13.23;97.22;101557.00;4842326;29;20289;-80
2023/05/03 03:45:58;;;;;;;2.58;2.05;;;;;;;13.20;97.47;101554.56;4847093;29;20225;-82
2023/05/03 03:48:25;;;;;;;2.90;2.20;;;;;;;13.16;97.72;101551.31;4825138;29;20894;-81
2023/05/03 03:50:52;;;;;;;2.35;2.15;;;;;;;13.23;98.74;101579.16;4852487;29;20872;-80
2023/05/03 03:53:19;;;;;;;2.70;2.35;;;;;;;13.29;97.78;101576.97;4857320;29;20318;-78
2023/05/03 03:55:46;;;;;;;2.47;2.28;;;;;;;13.31;97.47;101586.53;4855099;29;20108;-81
2023/05/03 03:58:13;;;;;;;2.50;2.30;;;;;;;12.54;97.18;101449.03;4853414;29;20056;-80
2023/05/03 04:00:41;;;;;;;3.15;2.47;;;;;;;13.21;97.62;101564.28;4858922;29;20052;-80
2023/05/03 04:03:08;;;;;;;2.72;2.50;;;;;;;13.26;98.45;101580.72;4862874;29;20059;-79
2023/05/03 04:05:35;;;;;;;2.75;2.55;;;;;;;13.28;97.70;101575.28;4873137;29;20101;-80
2023/05/03 04:08:07;;;;;;;3.15;2.20;;;;;;;13.35;96.56;101582.66;4863696;29;20380;-81
2023/05/03 04:10:33;;;;;;;2.55;2.35;;;;;;;13.30;96.54;101574.19;4878844;29;20103;-81
2023/05/03 04:13:00;;;;;;;2.95;2.65;;;;;;;13.35;96.20;101585.31;4869323;29;20470;-82
2023/05/03 04:15:27;;;;;;;4.07;2.35;;;;;;;13.26;96.79;101575.38;4881930;29;20052;-83
2023/05/03 04:17:54;;;;;;;2.78;2.40;;;;;;;13.29;96.79;101584.97;4874182;29;20079;-80
2023/05/03 04:20:22;;;;;;;7.68;2.60;;;;;;;13.26;97.21;101588.72;4864301;29;20370;-79
2023/05/03 04:22:49;;;;;;;3.85;2.50;;;;;;;13.18;97.53;101588.50;4884349;29;20059;-80
2023/05/03 04:25:17;;;;;;;2.60;2.40;;;;;;;13.05;97.14;101554.88;4876264;29;20055;-81
2023/05/03 04:27:44;;;;;;;3.35;2.90;;;;;;;13.39;97.11;101599.22;4884494;29;20108;-78
2023/05/03 04:30:14;;;;;;;3.25;2.95;;;;;;;13.33;96.99;101597.94;4872864;29;20513;-81
2023/05/03 04:32:44;;;;;;;2.50;2.28;;;;;;;13.07;97.30;101560.09;4845897;29;20498;-82
2023/05/03 04:35:11;;;;;;;4.32;2.85;;;;;;;13.32;97.23;101606.88;4866137;29;20080;-80
2023/05/03 04:37:42;;;;;;;3.95;2.92;;;;;;;13.00;97.74;101561.59;4909145;29;20155;-80
2023/05/03 04:40:11;;;;;;;4.68;2.95;;;;;;;13.29;98.42;101606.31;4888993;29;20056;-80
2023/05/03 04:42:42;;;;;;;4.20;3.08;;;;;;;13.34;98.05;101612.09;4885328;29;20052;-81
2023/05/03 04:45:10;;;;;;;2.78;2.58;;;;;;;13.38;97.20;101614.38;4890639;29;20111;-80
2023/05/03 04:47:37;;;;;;;6.20;4.75;;;;;;;13.26;97.02;101597.56;4891807;29;20289;-81
2023/05/03 04:50:05;;;;;;;4.50;3.67;;;;;;;13.28;97.30;101601.94;4879854;29;20411;-79
2023/05/03 04:52:33;;;;;;;4.20;3.50;;;;;;;12.99;97.11;101566.06;4892295;29;20442;-81
2023/05/03 04:55:00;;;;;;;4.32;3.92;;;;;;;13.33;97.46;101629.94;4901179;29;20051;-81
2023/05/03 04:57:27;;;;;;;4.05;3.45;;;;;;;13.14;97.31;101595.09;4879533;29;20150;-78
2023/05/03 04:59:56;;;;;;;4.95;4.25;;;;;;;13.28;96.70;101613.47;4887904;29;20052;-79
2023/05/03 05:02:23;;;;;;;5.63;4.60;;;;;;;13.35;97.09;101641.31;4866162;29;20060;-79
2023/05/03 05:04:52;;;;;;;4.70;4.30;;;;;;;13.14;98.28;101611.94;4877723;29;20060;-82
2023/05/03 05:07:19;;;;;;;4.68;4.20;;;;;;;12.52;98.40;101512.25;4855253;29;20088;-81
2023/05/03 05:09:52;;;;;;;5.05;3.88;;;;;;;13.28;98.41;101639.28;4871447;29;20060;-82
2023/05/03 05:12:19;;;;;;;4.93;4.43;;;;;;;12.87;98.27;101577.75;4835306;29;20048;-81
2023/05/03 05:14:46;;;;;;;4.20;3.80;;;;;;;12.55;99.11;101529.81;4857906;29;20067;-81
2023/05/03 05:17:15;;;;;;;4.78;4.28;;;;;;;13.05;99.21;101612.69;4834443;29;20511;-81
2023/05/03 05:19:47;;;;;;;3.70;3.40;;;;;;;13.17;99.17;101637.47;4815551;29;20096;-82
2023/05/03 05:22:18;;;;;;;4.40;4.00;;;;;;;13.19;98.80;101638.22;4810930;29;20437;-80
2023/05/03 05:24:45;;;;;;;4.35;3.92;;;;;;;13.34;99.12;101670.78;4825217;29;20132;-80
2023/05/03 05:27:13;;;;;;;4.22;3.83;;;;;;;13.42;98.43;101669.16;4863109;29;20085;-80
2023/05/03 05:29:40;;;;;;;4.03;3.63;;;;;;;13.43;98.03;101681.53;4840819;29;20049;-80
2023/05/03 05:32:09;;;;;;;5.18;3.58;;;;;;;12.65;97.77;101553.88;4827590;29;20048;-81
2023/05/03 05:34:36;;;;;;;4.57;4.18;;;;;;;13.33;97.92;101666.44;4864501;29;20355;-78
2023/05/03 05:37:11;;;;;;;5.28;4.75;;;;;;;13.01;97.52;101598.78;4864465;29;20108;-81
2023/05/03 05:39:37;;;;;;;4.95;4.45;;;;;;;12.03;97.04;101452.38;4862724;29;20056;-79
2023/05/03 05:42:04;;;;;;;5.43;4.93;;;;;;;13.41;97.96;101683.47;4877773;29;20044;-80
2023/05/03 05:44:31;;;;;;;5.10;4.60;;;;;;;13.39;98.21;101693.41;4855765;29;20395;-80
2023/05/03 05:46:58;;;;;;;5.78;4.60;;;;;;;13.22;98.85;101668.13;4861527;29;20699;-80
2023/05/03 05:49:25;;;;;;;5.57;4.40;;;;;;;13.17;98.82;101653.47;4864067;29;20066;-80
2023/05/03 05:51:52;;;;;;;5.03;4.60;;;;;;;13.30;98.35;101667.53;4858465;29;20059;-83
2023/05/03 05:54:19;;;;;;;5.35;4.85;;;;;;;13.37;98.80;101692.69;4849308;29;20538;-81
2023/05/03 05:56:45;;;;;;;6.00;5.40;;;;;;;12.82;98.36;101595.97;4823229;29;20052;-80
2023/05/03 05:59:12;;;;;;;7.15;5.10;;;;;;;13.54;98.24;101698.44;4862025;29;20052;-81
2023/05/03 06:01:43;;;;;;;5.75;4.43;;;;;;;13.17;97.14;101643.66;4862913;29;20060;-82
2023/05/03 06:04:12;;;;;;;5.70;5.15;;;;;;;13.55;96.57;101706.31;4873344;29;20689;-81
2023/05/03 06:06:40;;;;;;;5.60;5.10;;;;;;;13.42;97.49;101701.19;4874273;29;20056;-81
2023/05/03 06:09:08;;;;;;;5.22;4.72;;;;;;;13.49;98.20;101711.31;4874198;29;20059;-79
2023/05/03 06:11:50;;;;;;;5.65;5.03;;;;;;;13.13;97.46;101646.69;4896744;29;20056;-82
2023/05/03 06:14:19;;;;;;;7.10;5.82;;;;;;;13.37;98.23;101698.03;4883123;29;20044;-79
2023/05/03 06:16:46;;;;;;;5.90;5.30;;;;;;;12.64;98.45;101576.16;4888742;29;20052;-82
2023/05/03 06:19:13;;;;;;;5.18;4.60;;;;;;;13.55;98.16;101702.81;4873899;29;20056;-81
2023/05/03 06:21:40;;;;;;;5.95;5.35;;;;;;;13.53;97.40;101708.28;4876549;29;20048;-80
2023/05/03 06:24:07;;;;;;;6.03;5.28;;;;;;;13.16;97.24;101657.97;4883799;29;20060;-79
2023/05/03 06:26:34;;;;;;;6.43;5.80;;;;;;;13.53;98.59;101723.44;4881566;29;20067;-80
2023/05/03 06:29:02;;;;;;;6.18;5.57;;;;;;;12.71;98.60;101582.66;4883414;29;20076;-82
2023/05/03 06:31:30;;;;;;;7.63;5.90;;;;;;;13.61;98.26;101734.31;4875212;29;20506;-81
2023/05/03 06:33:57;;;;;;;6.50;5.82;;;;;;;13.45;97.59;101695.56;4884304;29;20637;-81
2023/05/03 06:36:24;;;;;;;6.15;5.55;;;;;;;13.56;97.54;101710.66;4876204;29;20482;-79
2023/05/03 06:38:57;;;;;;;7.43;5.75;;;;;;;13.59;97.67;101725.56;4882909;29;20430;-81
2023/05/03 06:41:25;;;;;;;7.57;5.80;;;;;;;13.63;98.12;101721.69;4882591;29;20092;-80
2023/05/03 06:43:52;;;;;;;7.65;6.40;;;;;;;13.68;97.48;101724.81;4880942;29;20294;-78
2023/05/03 06:46:20;;;;;;;8.30;6.45;;;;;;;13.70;98.01;101730.88;4899789;29;20074;-82
2023/05/03 06:48:49;;;;;;;7.70;6.90;;;;;;;13.37;97.73;101687.34;4877543;29;20100;-81
2023/05/03 06:51:16;;;;;;;8.10;6.75;;;;;;;13.50;99.18;101723.69;4883914;29;20410;-80
2023/05/03 06:53:50;;;;;;;7.15;6.05;;;;;;;13.15;99.95;101666.94;4893483;29;20745;-81
2023/05/03 06:56:34;;;;;;;7.88;6.70;;;;;;;13.52;100.00;101727.06;4900066;29;20040;-83
2023/05/03 06:59:04;;;;;;;7.53;6.43;;;;;;;13.54;99.54;101735.78;4885635;29;20052;-79
2023/05/03 07:01:34;;;;;;;9.52;6.90;;;;;;;13.42;99.64;101701.19;4864519;29;20517;-80
2023/05/03 07:04:02;;;;;;;7.65;6.85;;;;;;;13.72;99.15;101734.25;4861076;29;20056;-80
2023/05/03 07:06:31;;;;;;;8.18;7.18;;;;;;;13.75;97.83;101731.31;4879139;29;20063;-81
2023/05/03 07:09:12;;;;;;;8.90;7.30;;;;;;;13.28;97.91;101656.16;4897034;29;20441;-81
2023/05/03 07:11:48;;;;;;;9.05;7.90;;;;;;;13.78;98.78;101728.38;4887322;29;20059;-81
2023/05/03 07:14:21;;;;;;;8.15;7.15;;;;;;;13.29;97.34;101638.31;4877827;29;20372;-81
2023/05/03 07:16:50;;;;;;;9.05;7.65;;;;;;;13.76;97.46;101719.69;4886955;29;20063;-82
2023/05/03 07:19:18;;;;;;;8.02;7.15;;;;;;;13.86;97.32;101720.59;4872940;29;20055;-79
2023/05/03 07:21:45;;;;;;;8.93;7.35;;;;;;;13.89;97.45;101741.69;4884269;29;20051;-79
2023/05/03 07:24:13;;;;;;;7.47;6.57;;;;;;;14.02;96.13;101729.94;4872760;29;20040;-80
2023/05/03 07:26:43;;;;;;;8.95;7.10;;;;;;;13.88;96.09;101710.63;4875210;29;20562;-77
2023/05/03 07:29:12;;;;;;;9.10;6.82;;;;;;;13.83;97.54;101726.16;4869379;29;20142;-82
2023/05/03 07:31:43;;;;;;;8.23;6.30;;;;;;;13.73;97.94;101697.72;4883656;29;20051;-77
2023/05/03 07:34:13;;;;;;;8.60;6.97;;;;;;;13.93;97.20;101730.72;4897209;29;20052;-78
2023/05/03 07:36:40;;;;;;;9.32;7.40;;;;;;;13.93;97.32;101728.06;4894363;29;20051;-77
2023/05/03 07:39:10;;;;;;;8.23;7.15;;;;;;;13.77;97.52;101708.03;4882310;29;20151;-79
2023/05/03 07:41:37;;;;;;;10.13;7.43;;;;;;;13.72;97.72;101688.88;4872927;29;20123;-82
2023/05/03 07:44:04;;;;;;;9.38;8.02;;;;;;;13.97;98.15;101737.50;4873485;29;20087;-81
2023/05/03 07:46:33;;;;;;;10.02;7.90;;;;;;;14.07;97.75;101738.41;4876197;29;20051;-78
2023/05/03 07:49:07;;;;;;;10.95;7.93;;;;;;;13.98;97.72;101740.06;4872050;29;20323;-81
2023/05/03 07:51:38;;;;;;;8.05;7.22;;;;;;;13.66;98.13;101681.38;4871527;29;20115;-78
2023/05/03 07:54:06;;;;;;;9.07;7.63;;;;;;;13.96;98.86;101735.81;4889777;29;20115;-78
2023/05/03 07:56:33;;;;;;;11.10;7.45;;;;;;;14.04;98.43;101744.84;4878336;29;20056;-83
2023/05/03 07:59:01;;;;;;;8.48;7.47;;;;;;;13.81;98.44;101706.78;4877761;29;20040;-78
2023/05/03 08:01:36;;;;;;;9.68;7.78;;;;;;;14.19;97.51;101741.84;4877717;29;20067;-78
2023/05/03 08:04:03;;;;;;;8.85;7.70;;;;;;;14.20;97.28;101744.41;4886040;29;20075;-78
2023/05/03 08:06:39;;;;;;;8.73;7.60;;;;;;;14.11;97.29;101742.50;4874259;29;20504;-80
2023/05/03 08:09:08;;;;;;;8.80;7.65;;;;;;;14.13;98.43;101759.25;4850451;29;20040;-77
2023/05/03 08:11:35;;;;;;;9.63;8.43;;;;;;;14.00;98.62;101747.91;4849549;29;20610;-80
2023/05/03 08:14:03;;;;;;;10.43;8.23;;;;;;;13.80;98.37;101715.75;4851392;29;20380;-81
2023/05/03 08:16:34;;;;;;;8.60;7.70;;;;;;;14.19;97.39;101753.38;4888909;29;20056;-79
2023/05/03 08:19:01;;;;;;;9.20;7.47;;;;;;;14.29;96.48;101756.94;4865213;29;20438;-78
2023/05/03 08:21:29;;;;;;;10.70;7.15;;;;;;;14.23;96.66;101728.09;4857117;29;20078;-80
2023/05/03 08:23:56;;;;;;;8.88;7.97;;;;;;;14.29;95.99;101748.91;4865794;29;20490;-78
2023/05/03 08:26:23;;;;;;;9.02;7.95;;;;;;;13.89;97.44;101687.44;4858089;29;20274;-79
2023/05/03 08:28:50;;;;;;;9.25;7.90;;;;;;;13.83;96.78;101656.78;4873079;29;20094;-78
2023/05/03 08:31:17;;;;;;;9.27;8.38;;;;;;;14.44;96.45;101756.59;4896327;29;20064;-79
2023/05/03 08:33:47;;;;;;;8.43;7.38;;;;;;;14.28;95.77;101723.22;4881460;29;20047;-78
2023/05/03 08:36:30;;;;;;;9.48;7.70;;;;;;;14.31;95.87;101733.63;4873068;29;20412;-78
2023/05/03 08:38:57;;;;;;;9.18;8.02;;;;;;;14.46;95.24;101750.13;4882009;29;20067;-79
2023/05/03 08:41:32;;;;;;;9.13;8.23;;;;;;;14.51;95.73;101763.09;4873342;29;20496;-76
2023/05/03 08:44:07;;;;;;;9.10;8.13;;;;;;;14.46;95.61;101759.97;4860431;29;20054;-79
2023/05/03 08:46:42;;;;;;;8.93;7.65;;;;;;;13.83;96.16;101651.44;4870233;29;20048;-79
2023/05/03 08:49:11;;;;;;;10.27;7.75;;;;;;;14.56;96.15;101766.25;4886146;29;20079;-75
2023/05/03 08:51:42;;;;;;;8.85;7.93;;;;;;;14.46;96.20;101743.94;4871770;29;20048;-77
2023/05/03 08:54:09;;;;;;;7.53;6.82;;;;;;;14.58;97.61;101774.13;4863914;29;20375;-79
2023/05/03 08:56:43;;;;;;;10.18;7.75;;;;;;;14.42;96.88;101731.88;4849254;29;20055;-78
2023/05/03 08:59:16;;;;;;;8.82;7.93;;;;;;;14.67;96.11;101774.16;4872411;29;20408;-78
2023/05/03 09:01:43;;;;;;;8.25;7.45;;;;;;;14.27;96.16;101713.50;4886775;29;20479;-76
2023/05/03 09:04:11;;;;;;;8.60;7.75;;;;;;;14.37;95.63;101723.38;4885373;29;20119;-80
2023/05/03 09:06:40;;;;;;;8.48;7.20;;;;;;;14.65;93.75;101749.41;4875729;29;20144;-79
2023/05/03 09:09:10;;;;;;;10.80;7.85;;;;;;;14.36;93.64;101701.16;4895452;29;20188;-78
2023/05/03 09:11:38;;;;;;;9.00;8.18;;;;;;;14.10;94.09;101674.06;4872764;29;20059;-80
2023/05/03 09:14:20;;;;;;;9.20;8.30;;;;;;;14.05;94.22;101670.94;4869630;29;20048;-83
2023/05/03 09:16:47;;;;;;;9.57;8.70;;;;;;;13.81;95.89;101634.72;4870379;29;20052;-79
2023/05/03 09:19:15;;;;;;;8.35;7.57;;;;;;;14.42;93.86;101711.31;4867986;29;20059;-79
2023/05/03 09:21:49;;;;;;;9.73;7.78;;;;;;;14.98;93.40;101786.66;4880317;29;20052;-77
2023/05/03 09:24:21;;;;;;;8.98;7.88;;;;;;;14.41;93.25;101688.25;4887186;29;20060;-80
2023/05/03 09:26:51;;;;;;;8.82;7.97;;;;;;;15.07;93.21;101786.69;4879391;29;20800;-82
2023/05/03 09:29:29;;;;;;;7.97;7.13;;;;;;;15.00;92.98;101769.50;4886883;29;20092;-80
2023/05/03 09:32:00;;;;;;;7.72;6.90;;;;;;;14.83;92.23;101740.72;4875824;29;20055;-80
2023/05/03 09:34:27;;;;;;;8.07;7.28;;;;;;;14.97;92.04;101753.72;4887801;29;20055;-81
2023/05/03 09:36:55;;;;;;;8.35;7.55;;;;;;;15.14;92.14;101786.97;4863996;29;20103;-80
2023/05/03 09:39:22;;;;;;;8.07;7.38;;;;;;;15.15;92.03;101799.38;4857169;29;20052;-80
2023/05/03 09:41:50;;;;;;;8.93;8.13;;;;;;;14.48;91.91;101668.03;4860907;29;20052;-82
2023/05/03 09:44:42;;;;;;;8.45;7.65;;;;;;;15.18;91.04;101786.56;4872617;29;20085;-77
2023/05/03 09:47:21;;;;;;;8.32;7.53;;;;;;;14.71;91.06;101716.81;4865581;29;20048;-80
2023/05/03 09:49:55;;;;;;;9.70;8.15;;;;;;;14.49;91.79;101682.22;4880006;29;20052;-81
2023/05/03 09:52:32;;;;;;;9.93;7.72;;;;;;;15.11;91.02;101797.97;4876929;29;20573;-78
2023/05/03 09:55:05;;;;;;;8.40;7.50;;;;;;;15.33;89.52;101807.56;4884784;29;20399;-80
2023/05/03 09:57:45;;;;;;;8.13;7.43;;;;;;;15.18;91.51;101793.75;4881582;29;20044;-79
2023/05/03 10:00:15;;;;;;;9.38;8.40;;;;;;;14.72;92.60;101714.97;4892021;29;20498;-79
2023/05/03 10:02:43;;;;;;;10.48;8.55;;;;;;;14.94;93.14;101745.97;4881015;29;20067;-78
2023/05/03 10:05:11;;;;;;;8.02;7.32;;;;;;;15.25;92.16;101772.66;4875254;29;20265;-79
2023/05/03 10:07:42;;;;;;;10.13;7.75;;;;;;;15.27;91.45;101766.19;4889021;29;20094;-79
2023/05/03 10:10:19;;;;;;;8.27;7.43;;;;;;;14.99;90.87;101703.63;4892850;29;20052;-79
2023/05/03 10:12:52;;;;;;;8.20;7.13;;;;;;;15.42;90.14;101773.81;4896972;29;20095;-82
2023/05/03 10:15:22;;;;;;;9.07;8.18;;;;;;;15.52;89.88;101762.09;4893078;29;20051;-80
2023/05/03 10:17:55;;;;;;;9.13;8.23;;;;;;;14.98;90.14;101669.88;4906636;29;20302;-80
2023/05/03 10:20:51;;;;;;;8.02;7.22;;;;;;;15.66;89.50;101757.34;4892906;29;20433;-81
2023/05/03 10:23:18;;;;;;;8.02;6.75;;;;;;;15.45;88.59;101699.44;4902084;29;20077;-80
2023/05/03 10:26:18;;;;;;;8.75;7.25;;;;;;;14.92;86.77;101607.06;4898711;29;20082;-80
2023/05/03 10:28:45;;;;;;;7.30;6.60;;;;;;;15.63;87.85;101720.13;4871033;29;20052;-80
2023/05/03 10:31:49;;;;;;;7.95;7.15;;;;;;;15.85;88.18;101749.31;4873681;29;20051;-82
2023/05/03 10:34:22;;;;;;;9.25;7.43;;;;;;;15.91;87.21;101743.38;4876676;29;20159;-80
2023/05/03 10:36:52;;;;;;;6.85;6.15;;;;;;;15.88;87.75;101729.44;4892921;29;20043;-80
2023/05/03 10:39:22;;;;;;;7.72;7.03;;;;;;;15.38;86.27;101624.22;4886812;29;20421;-76
2023/05/03 10:42:07;;;;;;;8.32;7.53;;;;;;;15.97;84.08;101716.03;4877849;29;20055;-81
2023/05/03 10:44:39;;;;;;;8.65;7.90;;;;;;;15.80;84.29;101706.03;4889360;29;20071;-81
2023/05/03 10:47:16;;;;;;;8.63;7.72;;;;;;;15.93;84.66;101729.84;4904667;29;20483;-78
2023/05/03 10:49:43;;;;;;;8.43;7.63;;;;;;;15.99;86.02;101735.44;4900457;29;20056;-81
2023/05/03 10:52:41;;;;;;;9.10;8.20;;;;;;;16.07;85.99;101731.22;4907045;29;20410;-80
2023/05/03 10:56:07;;;;;;;9.88;8.88;;;;;;;16.16;85.88;101731.19;4893010;29;20048;-77
2023/05/03 10:58:44;;;;;;;9.18;8.20;;;;;;;16.17;83.20;101726.69;4891090;29;20439;-81
2023/05/03 11:01:18;;;;;;;8.63;7.78;;;;;;;16.27;83.62;101722.13;4907090;29;20059;-82
2023/05/03 11:04:09;;;;;;;10.27;8.20;;;;;;;16.34;82.85;101723.25;4903112;29;20139;-80
2023/05/03 11:06:40;;;;;;;10.02;7.63;;;;;;;15.60;81.27;101585.59;4895038;29;20529;-79
2023/05/03 11:09:11;;;;;;;8.15;7.45;;;;;;;16.33;81.68;101700.09;4886475;29;20066;-81
2023/05/03 11:11:39;;;;;;;7.53;6.82;;;;;;;16.54;81.32;101733.88;4910521;29;20056;-81
2023/05/03 11:14:09;;;;;;;7.97;7.28;;;;;;;16.48;80.26;101707.66;4909301;29;20250;-80
2023/05/03 11:16:39;;;;;;;11.30;7.72;;;;;;;16.43;80.00;101695.56;4916081;29;20055;-80
2023/05/03 11:19:08;;;;;;;8.48;7.55;;;;;;;16.37;80.47;101682.75;4909339;29;20043;-82
2023/05/03 11:21:35;;;;;;;8.02;7.18;;;;;;;15.91;80.40;101572.00;4885717;29;20048;-78
2023/05/03 11:24:02;;;;;;;7.95;7.15;;;;;;;16.38;81.96;101644.25;4890732;29;20421;-80
2023/05/03 11:26:37;;;;;;;8.23;7.25;;;;;;;16.61;81.13;101684.88;4898704;29;20545;-81
2023/05/03 11:29:09;;;;;;;9.35;8.45;;;;;;;16.71;80.28;101679.47;4890500;29;20473;-77
2023/05/03 11:31:36;;;;;;;8.32;7.00;;;;;;;16.95;80.90;101716.47;4898610;29;20055;-79
2023/05/03 11:34:05;;;;;;;7.85;7.15;;;;;;;17.01;80.83;101725.75;4901853;29;20641;-78
2023/05/03 11:36:32;;;;;;;8.18;7.40;;;;;;;17.01;81.11;101720.38;4909156;29;20127;-78
2023/05/03 11:39:00;;;;;;;9.75;7.03;;;;;;;17.13;80.28;101721.84;4892579;29;20473;-81